Terminal Aerodrome Forecast
Issued by NWS

Home | Current Version | Previous Version | Text Only | Print | Product List | Glossary On
Versions: 1 2 3 4 5 6 7 8 9 10 11 12 13 14 15 16 17 18
466
FTUS43 KEAX 181136
TAFMKC
TAF
KMKC 181136Z 1812/1912 34019G30KT 6SM -RA BR OVC012
      TEMPO 1812/1815 4SM -RA BR OVC008
     FM181700 32016G28KT P6SM BKN050
     FM182300 32011KT P6SM SKC
     FM190400 29004KT P6SM SKC=

USA.gov is the U.S. government's official web portal to all federal, state and local government web resources and services.